Aviation Digital Data Service (ADDS)

Output produced by METARs form (1507 UTC 20 March 2019)
found at http://www.aviationweather.gov/metar/data/
 
Forecast for: LCLK (LARNACA/LARNAX A, CY)
Text: TAF LCLK 201130Z 2012/2112 12010KT 9999 FEW020
Forecast period: 1200 to 1600 UTC 20 March 2019
Forecast type: FROM: standard forecast or significant change
Winds: from the ESE (120 degrees) at 12 MPH (10 knots; 5.1 m/s)
Visibility: 6 or more miles 10+ km)
Ceiling: at least 12,000 feet AGL
Clouds: few clouds at 2000 feet AGL
Weather: no significant weather forecast for this period
Text: BECMG 2016/2019 32008KT
Forecast period: 1600 UTC 20 March 2019 to 0700 UTC 21 March 2019
Forecast type: BECOMING: Conditions expected to become as follows by 1900 UTC 20 March 2019
Winds: from the NW (320 degrees) at 9 MPH (8 knots; 4.1 m/s)
Visibility: 6 or more miles 10+ km)
Ceiling: at least 12,000 feet AGL
Clouds: few clouds at 2000 feet AGL
Weather: no significant weather forecast for this period
Text: BECMG 2107/2111 09010KT
Forecast period: 0700 to 1200 UTC 21 March 2019
Forecast type: BECOMING: Conditions expected to become as follows by 1100 UTC 21 March 2019
Winds: from the E (90 degrees) at 12 MPH (10 knots; 5.1 m/s)
Visibility: 6 or more miles 10+ km)
Ceiling: at least 12,000 feet AGL
Clouds: few clouds at 2000 feet AGL
Weather: no significant weather forecast for this period